首页
METAR-TAF:

METAR-TAF

机场 :

凱恩斯國際機場

凱恩斯, 澳大利亚

纬度: 16-53S, 经度: 145-45E, 海拔: 3米

当前天气观测

该预报发布于17分钟前的04:00 UTC
风速16节,风向东南
温度 22°C
湿度 83%
气压 1017 hPa
能見度: 9000
少量云层高于1500英尺
散云层高于2800英尺
多云层高于3500英尺
附近有阵雨

METAR: YBCS 230400Z 13016KT 9000 VCSH FEW015 SCT028 BKN035 22/19 Q1017 NOSIG

时间: 14:17 (04:17 UTC)

预报

该预报发布于5小时和30分钟前的22:47 UTC
预报有效从23日的 00点(UTC)到 23日的 24点(UTC)
风速14节,风向东南
能见度10公里或以上
散云层高于2500英尺
散云层高于4500英尺
小阵雨
从 23日的 0800点(UTC)
风速10节,风向
能見度: 5000
散云层高于2000英尺
多云层高于4000英尺
少量云层高于1000英尺
多云层高于1800英尺
少量云层高于1000英尺
多云层高于1800英尺
小阵雨, 阵雨, 阵雨

TAF: YBCS 222247Z 2300/2324 13014KT 9999 -SHRA SCT025 SCT045 FM230800 17010KT 9999 -SHRA SCT020 BKN040 INTER 2300/2302 5000 SHRA FEW010 BKN018 INTER 2312/2324 5000 SHRA FEW010 BKN018

超过4000个机场的气象观测和天气预报(METAR&TAF报告)。

可查询的气象台以黄色和红色小点在地图上表示。

将鼠标移到小点上方,可查看气象台名称。

然后点击查看天气观测和预报。

如需切换地图:点击带黑十字的绿色按钮放大地图;点击带横线的绿色按钮缩小地图;或者点击绿色箭头查看邻近地区的地图。


METAR-TAF: